createdAt,value
2018-09-06T00:01:23.023Z,18.90
2018-09-06T00:03:27.408Z,18.90
2018-09-06T00:05:31.653Z,19.00
2018-09-06T00:07:36.504Z,18.90
2018-09-06T00:09:41.672Z,18.90
2018-09-06T00:11:46.229Z,18.80
2018-09-06T00:13:50.765Z,18.90
2018-09-06T00:15:56.464Z,18.80
2018-09-06T00:18:02.388Z,18.80
2018-09-06T00:20:06.846Z,18.60
2018-09-06T00:22:11.619Z,18.70
2018-09-06T00:24:16.358Z,18.80
2018-09-06T00:26:20.928Z,18.80
2018-09-06T00:28:25.560Z,18.80
2018-09-06T00:30:30.375Z,18.70
2018-09-06T00:32:34.856Z,18.70
2018-09-06T00:34:39.301Z,18.70
2018-09-06T00:36:44.289Z,18.60
2018-09-06T00:38:49.390Z,18.50
2018-09-06T00:40:54.065Z,18.40
2018-09-06T00:42:58.379Z,18.60
2018-09-06T00:45:02.910Z,18.50
2018-09-06T00:47:07.353Z,18.50
2018-09-06T00:49:11.720Z,18.60
2018-09-06T00:51:16.034Z,18.70
2018-09-06T00:53:20.400Z,18.60
2018-09-06T00:55:24.728Z,18.70
2018-09-06T00:57:28.979Z,18.70
2018-09-06T00:59:33.188Z,18.70
2018-09-06T01:01:37.435Z,18.60
2018-09-06T01:03:41.769Z,18.50
2018-09-06T01:05:46.092Z,18.30
2018-09-06T01:07:50.444Z,18.30
2018-09-06T01:09:54.895Z,18.20
2018-09-06T01:11:59.211Z,18.20
2018-09-06T01:14:03.427Z,18.20
2018-09-06T01:16:07.755Z,18.10
2018-09-06T01:18:12.083Z,18.00
2018-09-06T01:20:16.313Z,18.00
2018-09-06T01:22:20.627Z,18.10
2018-09-06T01:24:24.896Z,18.10
2018-09-06T01:26:29.209Z,18.10
2018-09-06T01:28:33.484Z,18.00
2018-09-06T01:30:37.730Z,17.90
2018-09-06T01:32:42.053Z,17.70
2018-09-06T01:34:46.291Z,17.50
2018-09-06T01:36:50.459Z,17.60
2018-09-06T01:38:54.723Z,17.70
2018-09-06T01:40:58.960Z,17.80
2018-09-06T01:43:03.180Z,17.80
2018-09-06T01:45:07.447Z,17.80
2018-09-06T01:47:11.651Z,17.60
2018-09-06T01:49:15.873Z,17.60
2018-09-06T01:51:20.153Z,17.50
2018-09-06T01:53:24.343Z,17.40
2018-09-06T01:55:28.526Z,17.50
2018-09-06T01:57:32.839Z,17.50
2018-09-06T01:59:38.263Z,17.60
2018-09-06T02:01:42.534Z,17.70
2018-09-06T02:03:46.976Z,17.60
2018-09-06T02:05:51.218Z,17.70
2018-09-06T02:07:55.546Z,17.70
2018-09-06T02:09:59.724Z,17.70
2018-09-06T02:12:04.109Z,17.70
2018-09-06T02:14:08.635Z,17.70
2018-09-06T02:16:12.775Z,17.70
2018-09-06T02:18:17.031Z,17.60
2018-09-06T02:20:21.283Z,17.60
2018-09-06T02:22:25.457Z,17.60
2018-09-06T02:24:29.716Z,17.70
2018-09-06T02:26:33.949Z,17.60
2018-09-06T02:28:38.154Z,17.60
2018-09-06T02:30:42.380Z,17.40
2018-09-06T02:32:46.578Z,17.50
2018-09-06T02:34:50.786Z,17.60
2018-09-06T02:36:54.986Z,17.60
2018-09-06T02:38:59.290Z,17.70
2018-09-06T02:41:03.637Z,17.60
2018-09-06T02:43:09.566Z,17.60
2018-09-06T02:45:13.794Z,17.70
2018-09-06T02:47:18.044Z,17.60
2018-09-06T02:49:27.501Z,17.50
2018-09-06T02:51:32.194Z,17.60
2018-09-06T02:53:36.474Z,17.70
2018-09-06T02:55:41.042Z,17.70
2018-09-06T02:57:45.420Z,17.70
2018-09-06T02:59:49.668Z,17.60
2018-09-06T03:01:53.962Z,17.60
2018-09-06T03:03:58.332Z,17.60
2018-09-06T03:06:02.610Z,17.60
2018-09-06T03:08:06.924Z,17.60
2018-09-06T03:10:11.080Z,17.50
2018-09-06T03:12:15.407Z,17.40
2018-09-06T03:14:19.742Z,17.30
2018-09-06T03:16:24.052Z,17.20
2018-09-06T03:18:28.253Z,17.30
2018-09-06T03:20:32.448Z,17.40
2018-09-06T03:22:36.624Z,17.40
2018-09-06T03:24:40.831Z,17.50
2018-09-06T03:26:45.059Z,17.40
2018-09-06T03:28:51.105Z,17.50
2018-09-06T03:30:55.340Z,17.50
2018-09-06T03:32:59.647Z,17.40
2018-09-06T03:35:03.866Z,17.40
2018-09-06T03:37:08.079Z,17.30
2018-09-06T03:39:12.272Z,17.40
2018-09-06T03:41:16.567Z,17.40
2018-09-06T03:43:20.832Z,17.40
2018-09-06T03:45:25.072Z,17.30
2018-09-06T03:47:29.217Z,17.30
2018-09-06T03:49:33.421Z,17.20
2018-09-06T03:51:37.590Z,17.20
2018-09-06T03:53:41.761Z,17.20
2018-09-06T03:55:45.930Z,17.20
2018-09-06T03:57:50.295Z,17.20
2018-09-06T03:59:54.546Z,17.30
2018-09-06T04:01:59.002Z,17.30
2018-09-06T04:04:03.360Z,17.40
2018-09-06T04:06:07.579Z,17.40
2018-09-06T04:08:11.917Z,17.40
2018-09-06T04:10:16.185Z,17.30
2018-09-06T04:12:20.439Z,17.00
2018-09-06T04:14:25.572Z,16.90
2018-09-06T04:16:29.802Z,17.00
2018-09-06T04:18:34.025Z,16.90
2018-09-06T04:20:38.217Z,16.80
2018-09-06T04:22:46.244Z,16.70
2018-09-06T04:24:50.408Z,16.70
2018-09-06T04:26:54.590Z,16.70
2018-09-06T04:28:58.865Z,16.70
2018-09-06T04:31:03.202Z,16.70
2018-09-06T04:33:07.447Z,16.70
2018-09-06T04:35:11.605Z,16.80
2018-09-06T04:37:15.845Z,16.80
2018-09-06T04:39:20.095Z,16.80
2018-09-06T04:41:24.309Z,16.80
2018-09-06T04:43:28.723Z,16.80
2018-09-06T04:45:32.869Z,16.90
2018-09-06T04:47:37.072Z,16.90
2018-09-06T04:49:41.282Z,16.80
2018-09-06T04:51:45.418Z,16.80
2018-09-06T04:53:49.611Z,16.80
2018-09-06T04:55:53.828Z,16.60
2018-09-06T04:57:58.059Z,16.60
2018-09-06T05:00:03.011Z,16.70
2018-09-06T05:02:07.247Z,16.50
2018-09-06T05:04:12.710Z,16.50
2018-09-06T05:06:17.568Z,16.30
2018-09-06T05:08:22.041Z,16.40
2018-09-06T05:10:26.836Z,16.40
2018-09-06T05:12:31.107Z,16.30
2018-09-06T05:14:35.283Z,16.30
2018-09-06T05:16:39.573Z,16.30
2018-09-06T05:18:43.773Z,16.50
2018-09-06T05:20:48.098Z,16.60
2018-09-06T05:22:52.322Z,16.70
2018-09-06T05:24:56.640Z,16.80
2018-09-06T05:27:00.795Z,16.90
2018-09-06T05:29:05.148Z,16.90
2018-09-06T05:31:09.340Z,16.90
2018-09-06T05:33:13.515Z,16.90
2018-09-06T05:35:17.904Z,16.90
2018-09-06T05:37:22.040Z,16.90
2018-09-06T05:39:26.241Z,16.80
2018-09-06T05:41:30.411Z,16.90
2018-09-06T05:43:34.748Z,16.90
2018-09-06T05:45:38.934Z,16.90
2018-09-06T05:47:43.240Z,16.90
2018-09-06T05:49:47.704Z,16.90
2018-09-06T05:51:51.933Z,17.00
2018-09-06T05:53:56.160Z,16.90
2018-09-06T05:56:00.510Z,16.70
2018-09-06T05:58:04.803Z,16.70
2018-09-06T06:00:13.809Z,16.80
2018-09-06T06:02:17.981Z,16.80
2018-09-06T06:04:22.138Z,16.80
2018-09-06T06:06:26.390Z,16.80
2018-09-06T06:08:41.116Z,16.80
2018-09-06T06:10:45.478Z,16.70
2018-09-06T06:12:49.745Z,16.80
2018-09-06T06:14:53.950Z,16.90
2018-09-06T06:16:58.250Z,16.90
2018-09-06T06:19:02.481Z,17.00
2018-09-06T06:21:06.797Z,17.00
2018-09-06T06:23:11.035Z,17.00
2018-09-06T06:25:15.160Z,17.00
2018-09-06T06:27:19.406Z,17.10
2018-09-06T06:29:23.646Z,17.10
2018-09-06T06:31:27.895Z,17.10
2018-09-06T06:33:32.126Z,17.10
2018-09-06T06:35:36.362Z,17.10
2018-09-06T06:37:40.514Z,17.20
2018-09-06T06:39:44.696Z,17.20
2018-09-06T06:41:48.974Z,17.20
2018-09-06T06:43:53.172Z,17.10
2018-09-06T06:45:57.356Z,17.20
2018-09-06T06:48:01.553Z,17.10
2018-09-06T06:50:06.638Z,17.10
2018-09-06T06:52:10.902Z,17.10
2018-09-06T06:54:15.130Z,17.20
2018-09-06T06:56:19.375Z,17.10
2018-09-06T06:58:23.706Z,17.20
2018-09-06T07:00:28.154Z,17.10
2018-09-06T07:02:32.352Z,17.10
2018-09-06T07:04:36.629Z,17.20
2018-09-06T07:06:47.484Z,17.20
2018-09-06T07:08:51.720Z,17.30
2018-09-06T07:10:55.882Z,17.30
2018-09-06T07:13:00.043Z,17.30
2018-09-06T07:15:04.334Z,17.40
2018-09-06T07:17:08.532Z,17.50
2018-09-06T07:19:12.761Z,17.50
2018-09-06T07:21:17.076Z,17.50
2018-09-06T07:23:21.339Z,17.50
2018-09-06T07:25:25.608Z,17.50
2018-09-06T07:27:29.938Z,17.60
2018-09-06T07:29:34.143Z,17.60
2018-09-06T07:31:38.384Z,17.70
2018-09-06T07:33:42.665Z,17.60
2018-09-06T07:35:46.986Z,17.70
2018-09-06T07:37:51.130Z,17.70
2018-09-06T07:39:55.292Z,17.80
2018-09-06T07:41:59.606Z,17.80
2018-09-06T07:44:03.931Z,17.80
2018-09-06T07:46:08.112Z,17.90
2018-09-06T07:48:12.312Z,17.90
2018-09-06T07:50:16.530Z,17.90
2018-09-06T07:52:20.800Z,18.00
2018-09-06T07:54:24.951Z,18.00
2018-09-06T07:56:29.190Z,18.00
2018-09-06T07:58:33.385Z,18.00
2018-09-06T08:00:40.733Z,18.10
2018-09-06T08:02:45.041Z,18.10
2018-09-06T08:04:49.207Z,18.10
2018-09-06T08:06:53.388Z,18.20
2018-09-06T08:08:57.699Z,18.20
2018-09-06T08:11:01.890Z,18.30
2018-09-06T08:13:06.158Z,18.20
2018-09-06T08:15:10.345Z,18.20
2018-09-06T08:17:14.639Z,18.20
2018-09-06T08:19:18.869Z,18.20
2018-09-06T08:21:23.018Z,18.30
2018-09-06T08:23:27.638Z,18.30
2018-09-06T08:25:32.185Z,18.40
2018-09-06T08:27:36.434Z,18.40
2018-09-06T08:29:40.673Z,18.40
2018-09-06T08:31:44.919Z,18.40
2018-09-06T08:33:49.107Z,18.50
2018-09-06T08:35:53.256Z,18.50
2018-09-06T08:37:57.501Z,18.50
2018-09-06T08:40:01.703Z,18.50
2018-09-06T08:42:06.409Z,18.50
2018-09-06T08:44:10.670Z,18.50
2018-09-06T08:46:14.862Z,18.50
2018-09-06T08:48:19.142Z,18.60
2018-09-06T08:50:23.363Z,18.60
2018-09-06T08:52:27.711Z,18.60
2018-09-06T08:54:32.234Z,18.70
2018-09-06T08:56:36.447Z,18.70
2018-09-06T08:58:40.671Z,18.70
2018-09-06T09:00:48.907Z,18.80
2018-09-06T09:02:53.212Z,18.90
2018-09-06T09:04:57.351Z,18.90
2018-09-06T09:07:01.594Z,18.90
2018-09-06T09:09:08.595Z,18.90
2018-09-06T09:11:13.145Z,19.00
2018-09-06T09:13:17.328Z,18.90
2018-09-06T09:15:21.542Z,19.00
2018-09-06T09:17:25.872Z,19.00
2018-09-06T09:19:30.067Z,19.00
2018-09-06T09:21:34.438Z,19.00
2018-09-06T09:23:38.694Z,19.10
2018-09-06T09:25:42.889Z,19.10
2018-09-06T09:27:47.244Z,19.10
2018-09-06T09:29:51.631Z,19.10
2018-09-06T09:31:55.888Z,19.20
2018-09-06T09:34:00.280Z,19.20
2018-09-06T09:36:04.530Z,19.20
2018-09-06T09:38:09.252Z,19.20
2018-09-06T09:40:13.550Z,19.20
2018-09-06T09:42:17.766Z,19.30
2018-09-06T09:44:21.942Z,19.30
2018-09-06T09:48:30.226Z,19.40
2018-09-06T09:52:37.631Z,19.40
2018-09-06T09:54:41.903Z,19.40
2018-09-06T09:56:46.162Z,19.40
2018-09-06T09:58:50.408Z,19.30
2018-09-06T10:00:54.638Z,19.40
2018-09-06T10:03:04.044Z,19.40
2018-09-06T10:05:13.283Z,19.50
2018-09-06T10:07:22.610Z,19.40
2018-09-06T10:09:27.883Z,19.40
2018-09-06T10:11:32.436Z,19.50
2018-09-06T10:13:36.647Z,19.50
2018-09-06T10:15:41.495Z,19.40
2018-09-06T10:17:45.694Z,19.40
2018-09-06T10:19:49.950Z,19.40
2018-09-06T10:21:54.162Z,19.50
2018-09-06T10:23:58.441Z,19.50
2018-09-06T10:26:02.776Z,19.50
2018-09-06T10:28:07.283Z,19.50
2018-09-06T10:30:11.543Z,19.40
2018-09-06T10:32:15.791Z,19.40
2018-09-06T10:34:20.168Z,19.30
2018-09-06T10:36:24.435Z,19.30
2018-09-06T10:38:28.589Z,19.30
2018-09-06T10:40:32.905Z,19.30
2018-09-06T10:42:37.078Z,19.30
2018-09-06T10:44:41.367Z,19.30
2018-09-06T10:46:45.730Z,19.30
2018-09-06T10:48:49.874Z,19.20
2018-09-06T10:50:54.978Z,19.20
2018-09-06T10:52:59.183Z,19.10
2018-09-06T10:55:03.452Z,19.10
2018-09-06T10:57:07.703Z,19.10
2018-09-06T10:59:11.994Z,19.10
2018-09-06T11:01:23.387Z,19.00
2018-09-06T11:03:27.793Z,19.10
2018-09-06T11:05:32.090Z,19.10
2018-09-06T11:07:36.381Z,19.10
2018-09-06T11:09:40.692Z,19.10
2018-09-06T11:11:45.061Z,19.20
2018-09-06T11:13:49.282Z,19.20
2018-09-06T11:15:53.597Z,19.20
2018-09-06T11:17:58.384Z,19.20
2018-09-06T11:20:02.596Z,19.20
2018-09-06T11:22:07.057Z,19.20
2018-09-06T11:24:11.126Z,19.20
2018-09-06T11:26:15.327Z,19.10
2018-09-06T11:28:19.527Z,19.10
2018-09-06T11:30:23.678Z,19.10
2018-09-06T11:32:27.930Z,19.10
2018-09-06T11:34:32.518Z,19.00
2018-09-06T11:36:36.915Z,19.00
2018-09-06T11:38:41.174Z,19.00
2018-09-06T11:40:46.786Z,18.90
2018-09-06T11:42:50.964Z,18.70
2018-09-06T11:44:55.153Z,18.70
2018-09-06T11:46:59.384Z,18.80
2018-09-06T11:49:03.602Z,18.80
2018-09-06T11:51:08.527Z,18.80
2018-09-06T11:53:12.758Z,18.80
2018-09-06T11:55:16.971Z,18.80
2018-09-06T11:57:21.270Z,18.80
2018-09-06T11:59:25.662Z,18.90
2018-09-06T12:01:30.011Z,18.90
2018-09-06T12:03:34.276Z,18.80
2018-09-06T12:05:38.474Z,18.70
2018-09-06T12:07:42.729Z,18.70
2018-09-06T12:09:47.035Z,18.70
2018-09-06T12:11:51.347Z,18.80
2018-09-06T12:13:55.640Z,18.70
2018-09-06T12:15:59.946Z,18.80
2018-09-06T12:18:04.216Z,18.90
2018-09-06T12:20:08.396Z,18.80
2018-09-06T12:22:12.601Z,18.80
2018-09-06T12:24:16.935Z,18.90
2018-09-06T12:26:21.231Z,18.90
2018-09-06T12:28:25.541Z,19.00
2018-09-06T12:30:30.053Z,19.10
2018-09-06T12:32:34.372Z,19.10
2018-09-06T12:34:38.687Z,19.20
2018-09-06T12:36:42.883Z,19.20
2018-09-06T12:38:47.309Z,19.30
2018-09-06T12:40:51.521Z,19.40
2018-09-06T12:42:55.798Z,19.50
2018-09-06T12:45:00.047Z,19.50
2018-09-06T12:47:04.243Z,19.60
2018-09-06T12:49:08.453Z,19.80
2018-09-06T12:51:12.699Z,19.90
2018-09-06T12:53:16.995Z,20.00
2018-09-06T12:55:21.274Z,20.20
2018-09-06T12:57:25.523Z,20.30
2018-09-06T12:59:29.875Z,20.20
2018-09-06T13:01:34.101Z,20.20
2018-09-06T13:03:38.394Z,20.20
2018-09-06T13:05:42.571Z,20.20
2018-09-06T13:07:46.780Z,20.00
2018-09-06T13:09:51.013Z,20.10
2018-09-06T13:11:55.200Z,20.10
2018-09-06T13:13:59.530Z,20.20
2018-09-06T13:16:03.699Z,20.10
2018-09-06T13:18:07.875Z,20.00
2018-09-06T13:20:12.107Z,20.00
2018-09-06T13:22:28.453Z,19.90
2018-09-06T13:24:33.479Z,20.00
2018-09-06T13:26:37.680Z,20.00
2018-09-06T13:28:41.985Z,19.90
2018-09-06T13:30:46.851Z,19.90
2018-09-06T13:32:51.010Z,19.90
2018-09-06T13:34:55.799Z,19.80
2018-09-06T13:37:00.614Z,19.80
2018-09-06T13:39:07.533Z,19.80
2018-09-06T13:41:12.777Z,19.80
2018-09-06T13:43:18.122Z,19.90
2018-09-06T13:45:22.948Z,19.90
2018-09-06T13:47:28.266Z,19.90
2018-09-06T13:49:32.507Z,19.90
2018-09-06T13:51:37.073Z,19.90
2018-09-06T13:53:41.596Z,19.80
2018-09-06T13:55:46.418Z,19.90
2018-09-06T13:57:51.704Z,19.90
2018-09-06T13:59:56.299Z,20.00
2018-09-06T14:02:00.984Z,19.90
2018-09-06T14:04:05.929Z,19.90
2018-09-06T14:06:10.671Z,20.00
2018-09-06T14:08:14.846Z,20.10
2018-09-06T14:10:21.233Z,20.10
2018-09-06T14:12:25.505Z,20.10
2018-09-06T14:14:29.710Z,20.10
2018-09-06T14:16:34.043Z,20.10
2018-09-06T14:18:38.349Z,20.10
2018-09-06T14:20:42.631Z,20.00
2018-09-06T14:22:46.917Z,20.00
2018-09-06T14:24:51.089Z,20.00
2018-09-06T14:26:55.273Z,20.00
2018-09-06T14:28:59.540Z,19.90
2018-09-06T14:31:03.713Z,20.00
2018-09-06T14:33:07.975Z,20.00
2018-09-06T14:35:12.175Z,19.90
2018-09-06T14:37:18.395Z,20.00
2018-09-06T14:39:22.711Z,20.00
2018-09-06T14:41:27.575Z,20.10
2018-09-06T14:43:32.032Z,20.10
2018-09-06T14:45:36.275Z,20.10
2018-09-06T14:47:40.446Z,20.10
2018-09-06T14:49:44.870Z,20.10
2018-09-06T14:51:49.066Z,20.00
2018-09-06T14:53:53.321Z,20.00
2018-09-06T14:55:57.570Z,20.00
2018-09-06T14:58:01.783Z,20.00
2018-09-06T15:00:07.106Z,20.00
2018-09-06T15:02:11.379Z,20.00
2018-09-06T15:04:15.966Z,20.10
2018-09-06T15:06:20.651Z,20.00
2018-09-06T15:08:24.848Z,20.00
2018-09-06T15:10:30.550Z,20.00
2018-09-06T15:12:34.765Z,20.00
2018-09-06T15:14:39.004Z,20.00
2018-09-06T15:16:43.298Z,20.00
2018-09-06T15:18:47.459Z,20.00
2018-09-06T15:20:51.686Z,20.00
2018-09-06T15:22:55.914Z,20.00
2018-09-06T15:25:00.187Z,20.00
2018-09-06T15:27:04.425Z,20.00
2018-09-06T15:29:08.754Z,20.10
2018-09-06T15:31:12.982Z,20.30
2018-09-06T15:33:17.146Z,21.00
2018-09-06T15:35:21.403Z,21.40
2018-09-06T15:37:26.012Z,21.70
2018-09-06T15:39:30.257Z,21.80
2018-09-06T15:41:34.446Z,21.40
2018-09-06T15:43:38.678Z,21.40
2018-09-06T15:45:42.902Z,21.30
2018-09-06T15:47:47.188Z,21.10
2018-09-06T15:49:51.403Z,21.10
2018-09-06T15:51:55.563Z,20.90
2018-09-06T15:53:59.765Z,20.80
2018-09-06T15:56:04.043Z,20.80
2018-09-06T15:58:08.189Z,20.80
2018-09-06T16:00:12.407Z,20.60
2018-09-06T16:02:16.660Z,20.50
2018-09-06T16:04:20.888Z,20.50
2018-09-06T16:06:25.119Z,20.40
2018-09-06T16:08:29.283Z,20.40
2018-09-06T16:10:33.547Z,20.30
2018-09-06T16:12:37.814Z,20.20
2018-09-06T16:14:42.054Z,20.10
2018-09-06T16:16:46.278Z,20.10
2018-09-06T16:18:50.459Z,20.10
2018-09-06T16:20:54.653Z,20.10
2018-09-06T16:22:58.955Z,20.10
2018-09-06T16:25:03.182Z,20.10
2018-09-06T16:27:07.494Z,20.10
2018-09-06T16:29:11.693Z,20.10
2018-09-06T16:31:15.881Z,20.10
2018-09-06T16:33:20.111Z,20.10
2018-09-06T16:35:24.296Z,20.00
2018-09-06T16:37:28.513Z,19.90
2018-09-06T16:39:32.709Z,20.00
2018-09-06T16:41:36.865Z,19.90
2018-09-06T16:43:41.147Z,19.90
2018-09-06T16:45:45.372Z,19.90
2018-09-06T16:47:49.686Z,19.80
2018-09-06T16:49:54.071Z,19.90
2018-09-06T16:51:58.266Z,19.80
2018-09-06T16:54:02.480Z,19.70
2018-09-06T16:56:06.735Z,19.70
2018-09-06T16:58:10.956Z,19.60
2018-09-06T17:00:15.216Z,19.70
2018-09-06T17:02:19.419Z,19.70
2018-09-06T17:04:23.669Z,19.70
2018-09-06T17:06:27.859Z,19.60
2018-09-06T17:08:32.193Z,19.60
2018-09-06T17:10:36.427Z,19.50
2018-09-06T17:12:40.713Z,19.50
2018-09-06T17:14:45.131Z,19.50
2018-09-06T17:16:49.592Z,19.50
2018-09-06T17:18:53.842Z,19.40
2018-09-06T17:20:58.559Z,19.40
2018-09-06T17:23:02.858Z,19.40
2018-09-06T17:25:07.180Z,19.40
2018-09-06T17:27:11.540Z,19.40
2018-09-06T17:29:15.785Z,19.40
2018-09-06T17:31:20.140Z,19.30
2018-09-06T17:33:24.611Z,19.30
2018-09-06T17:35:29.099Z,19.30
2018-09-06T17:37:33.516Z,19.30
2018-09-06T17:39:38.081Z,19.30
2018-09-06T17:41:42.426Z,19.30
2018-09-06T17:43:47.013Z,19.30
2018-09-06T17:45:51.387Z,19.20
2018-09-06T17:47:56.285Z,19.20
2018-09-06T17:50:01.720Z,19.10
2018-09-06T17:52:06.188Z,19.10
2018-09-06T17:54:10.690Z,19.10
2018-09-06T17:56:15.265Z,19.10
2018-09-06T17:58:19.615Z,19.00
2018-09-06T18:00:24.252Z,19.00
2018-09-06T18:02:28.828Z,19.00
2018-09-06T18:04:33.436Z,19.00
2018-09-06T18:06:38.052Z,19.00
2018-09-06T18:08:42.718Z,18.90
2018-09-06T18:10:47.369Z,18.90
2018-09-06T18:12:52.011Z,18.90
2018-09-06T18:14:56.798Z,18.90
2018-09-06T18:17:01.456Z,18.90
2018-09-06T18:19:06.998Z,18.80
2018-09-06T18:21:11.628Z,18.80
2018-09-06T18:23:16.271Z,18.80
2018-09-06T18:25:21.585Z,18.80
2018-09-06T18:27:26.235Z,18.80
2018-09-06T18:29:32.338Z,18.70
2018-09-06T18:31:36.852Z,18.80
2018-09-06T18:33:41.527Z,18.80
2018-09-06T18:35:46.165Z,18.90
2018-09-06T18:37:50.714Z,18.90
2018-09-06T18:39:55.478Z,19.00
2018-09-06T18:42:01.710Z,19.10
2018-09-06T18:44:09.432Z,19.10
2018-09-06T18:46:15.241Z,19.10
2018-09-06T18:48:20.500Z,18.90
2018-09-06T18:50:26.292Z,18.80
2018-09-06T18:52:31.942Z,18.90
2018-09-06T18:54:36.503Z,18.90
2018-09-06T18:56:41.148Z,18.80
2018-09-06T18:58:45.822Z,18.70
2018-09-06T19:00:51.145Z,18.80
2018-09-06T19:02:55.942Z,18.80
2018-09-06T19:05:00.456Z,18.70
2018-09-06T19:07:05.571Z,18.50
2018-09-06T19:09:12.499Z,18.40
2018-09-06T19:11:19.153Z,18.40
2018-09-06T19:13:24.775Z,18.50
2018-09-06T19:15:32.079Z,18.50
2018-09-06T19:17:37.188Z,18.50
2018-09-06T19:19:41.849Z,18.50
2018-09-06T19:21:48.822Z,18.50
2018-09-06T19:23:53.434Z,18.50
2018-09-06T19:25:58.012Z,18.50
2018-09-06T19:28:02.543Z,18.50
2018-09-06T19:30:08.649Z,18.60
2018-09-06T19:32:13.403Z,18.60
2018-09-06T19:34:18.002Z,18.50
2018-09-06T19:36:23.043Z,18.60
2018-09-06T19:38:29.092Z,18.50
2018-09-06T19:40:34.202Z,18.50
2018-09-06T19:42:38.944Z,18.60
2018-09-06T19:44:43.892Z,18.60
2018-09-06T19:46:48.875Z,18.60
2018-09-06T19:48:53.499Z,18.60
2018-09-06T19:50:58.647Z,18.40
2018-09-06T19:53:03.291Z,18.30
2018-09-06T19:55:07.919Z,18.30
2018-09-06T19:57:14.070Z,18.20
2018-09-06T19:59:18.602Z,18.30
2018-09-06T20:01:24.327Z,18.50
2018-09-06T20:03:28.989Z,18.30
2018-09-06T20:05:33.487Z,18.20
2018-09-06T20:07:38.053Z,18.30
2018-09-06T20:09:42.947Z,18.20
2018-09-06T20:11:47.572Z,18.20
2018-09-06T20:13:52.096Z,18.30
2018-09-06T20:15:56.618Z,18.50
2018-09-06T20:18:01.232Z,18.60
2018-09-06T20:20:07.020Z,18.50
2018-09-06T20:22:11.505Z,18.40
2018-09-06T20:24:15.933Z,18.30
2018-09-06T20:26:20.436Z,18.40
2018-09-06T20:28:24.818Z,18.50
2018-09-06T20:30:29.168Z,18.50
2018-09-06T20:32:33.464Z,18.30
2018-09-06T20:34:37.700Z,18.20
2018-09-06T20:36:41.890Z,18.30
2018-09-06T20:38:46.182Z,18.50
2018-09-06T20:40:50.435Z,18.50
2018-09-06T20:42:54.678Z,18.50
2018-09-06T20:44:59.322Z,18.40
2018-09-06T20:47:03.482Z,18.40
2018-09-06T20:49:08.218Z,18.30
2018-09-06T20:51:13.282Z,18.30
2018-09-06T20:53:17.549Z,18.30
2018-09-06T20:55:27.620Z,18.10
2018-09-06T20:57:32.731Z,18.10
2018-09-06T20:59:37.767Z,18.20
2018-09-06T21:01:42.695Z,18.00
2018-09-06T21:03:47.897Z,18.10
2018-09-06T21:05:52.975Z,18.10
2018-09-06T21:07:58.897Z,18.00
2018-09-06T21:10:03.555Z,18.00
2018-09-06T21:12:08.589Z,18.00
2018-09-06T21:14:13.818Z,17.80
2018-09-06T21:16:18.155Z,17.90
2018-09-06T21:18:22.630Z,17.90
2018-09-06T21:20:27.073Z,17.90
2018-09-06T21:22:32.857Z,17.90
2018-09-06T21:24:38.135Z,17.80
2018-09-06T21:26:42.966Z,17.80
2018-09-06T21:28:47.538Z,17.90
2018-09-06T21:30:51.959Z,17.80
2018-09-06T21:32:56.233Z,17.70
2018-09-06T21:35:02.279Z,17.80
2018-09-06T21:37:09.667Z,17.90
2018-09-06T21:39:14.130Z,17.80
2018-09-06T21:41:18.277Z,17.80
2018-09-06T21:43:22.990Z,17.90
2018-09-06T21:45:27.203Z,17.80
2018-09-06T21:47:31.431Z,17.80
2018-09-06T21:49:35.646Z,17.90
2018-09-06T21:51:39.836Z,18.00
2018-09-06T21:53:44.399Z,17.90
2018-09-06T21:55:54.091Z,17.90
2018-09-06T21:57:58.688Z,18.00
2018-09-06T22:00:04.222Z,17.90
2018-09-06T22:02:13.986Z,17.80
2018-09-06T22:04:31.252Z,17.80
2018-09-06T22:06:36.865Z,17.80
2018-09-06T22:08:41.843Z,17.80
2018-09-06T22:10:46.678Z,17.80
2018-09-06T22:12:52.338Z,17.70
2018-09-06T22:14:57.164Z,17.80
2018-09-06T22:17:02.247Z,17.80
2018-09-06T22:19:08.645Z,17.70
2018-09-06T22:21:14.055Z,17.70
2018-09-06T22:23:18.781Z,17.80
2018-09-06T22:25:23.039Z,17.70
2018-09-06T22:27:27.835Z,17.70
2018-09-06T22:29:33.510Z,17.70
2018-09-06T22:31:38.266Z,17.60
2018-09-06T22:33:42.968Z,17.60
2018-09-06T22:35:48.067Z,17.60
2018-09-06T22:37:52.262Z,17.70
2018-09-06T22:39:56.507Z,17.60
2018-09-06T22:42:00.906Z,17.60
2018-09-06T22:44:12.832Z,17.50
2018-09-06T22:46:17.817Z,17.50
2018-09-06T22:48:23.348Z,17.40
2018-09-06T22:50:28.502Z,17.50
2018-09-06T22:52:33.493Z,17.70
2018-09-06T22:54:38.057Z,17.70
2018-09-06T22:56:42.695Z,17.80
2018-09-06T22:58:47.484Z,17.70
2018-09-06T23:00:52.461Z,17.60
2018-09-06T23:03:02.771Z,17.40
2018-09-06T23:05:07.275Z,17.40
2018-09-06T23:07:12.846Z,17.50
2018-09-06T23:09:17.333Z,17.60
2018-09-06T23:11:21.841Z,17.50
2018-09-06T23:13:28.140Z,17.30
2018-09-06T23:15:32.324Z,17.40
2018-09-06T23:17:37.087Z,17.50
2018-09-06T23:19:41.830Z,17.40
2018-09-06T23:21:46.722Z,17.40
2018-09-06T23:23:51.013Z,17.50
2018-09-06T23:25:55.276Z,17.30
2018-09-06T23:27:59.503Z,17.20
2018-09-06T23:30:03.880Z,17.30
2018-09-06T23:32:08.114Z,17.30
2018-09-06T23:34:20.233Z,17.20
2018-09-06T23:36:26.109Z,17.10
2018-09-06T23:38:31.115Z,17.00
2018-09-06T23:40:39.206Z,17.30
2018-09-06T23:42:43.630Z,17.20
2018-09-06T23:44:48.562Z,17.20
2018-09-06T23:46:53.834Z,17.10
2018-09-06T23:48:58.752Z,17.10
2018-09-06T23:51:04.034Z,17.10
2018-09-06T23:53:08.234Z,17.30
2018-09-06T23:55:13.737Z,17.20
2018-09-06T23:57:19.832Z,17.20
2018-09-06T23:59:24.040Z,17.20
